createdAt,value
2022-12-27T00:01:52.720Z,10.80
2022-12-27T00:04:39.325Z,10.80
2022-12-27T00:07:25.254Z,10.70
2022-12-27T00:10:11.455Z,10.70
2022-12-27T00:12:57.078Z,10.60
2022-12-27T00:15:42.780Z,10.60
2022-12-27T00:18:28.544Z,10.70
2022-12-27T00:21:14.800Z,10.50
2022-12-27T00:24:00.661Z,10.60
2022-12-27T00:26:46.069Z,10.40
2022-12-27T00:29:31.735Z,10.40
2022-12-27T00:32:17.436Z,10.40
2022-12-27T00:35:03.102Z,10.40
2022-12-27T00:37:48.839Z,10.50
2022-12-27T00:40:34.286Z,10.50
2022-12-27T00:43:19.883Z,10.60
2022-12-27T00:46:06.389Z,10.60
2022-12-27T00:48:52.158Z,10.60
2022-12-27T00:51:37.903Z,10.60
2022-12-27T00:54:23.349Z,10.50
2022-12-27T00:57:08.894Z,10.50
2022-12-27T00:59:54.506Z,10.40
2022-12-27T01:02:40.053Z,10.40
2022-12-27T01:05:25.620Z,10.40
2022-12-27T01:08:11.269Z,10.30
2022-12-27T01:10:57.056Z,10.30
2022-12-27T01:13:44.281Z,10.30
2022-12-27T01:16:31.311Z,10.20
2022-12-27T01:19:17.035Z,10.20
2022-12-27T01:22:03.471Z,10.20
2022-12-27T01:24:48.900Z,10.10
2022-12-27T01:27:34.602Z,10.10
2022-12-27T01:30:20.221Z,10.00
2022-12-27T01:33:05.636Z,10.00
2022-12-27T01:35:51.130Z,9.90
2022-12-27T01:38:36.672Z,10.00
2022-12-27T01:41:50.727Z,10.00
2022-12-27T01:44:36.112Z,10.00
2022-12-27T01:47:45.265Z,10.00
2022-12-27T01:50:35.955Z,9.90
2022-12-27T01:53:24.493Z,9.90
2022-12-27T01:56:24.303Z,9.90
2022-12-27T01:59:10.938Z,10.00
2022-12-27T02:01:56.708Z,10.00
2022-12-27T02:04:42.074Z,9.90
2022-12-27T02:07:38.601Z,9.90
2022-12-27T02:10:25.703Z,9.80
2022-12-27T02:13:12.210Z,9.90
2022-12-27T02:15:57.767Z,9.90
2022-12-27T02:18:44.009Z,9.90
2022-12-27T02:21:45.564Z,9.90
2022-12-27T02:24:52.562Z,9.80
2022-12-27T02:27:56.355Z,9.90
2022-12-27T02:30:44.214Z,9.80
2022-12-27T02:33:37.523Z,9.80
2022-12-27T02:36:29.793Z,9.80
2022-12-27T02:39:18.130Z,9.60
2022-12-27T02:42:23.515Z,9.60
2022-12-27T02:45:39.425Z,9.50
2022-12-27T02:48:43.460Z,9.60
2022-12-27T02:51:56.602Z,9.60
2022-12-27T02:54:51.026Z,9.60
2022-12-27T02:57:58.089Z,9.50
2022-12-27T03:01:30.541Z,9.60
2022-12-27T03:04:22.309Z,9.60
2022-12-27T03:07:53.558Z,9.50
2022-12-27T03:11:21.227Z,9.50
2022-12-27T03:14:49.353Z,9.40
2022-12-27T03:17:46.612Z,9.40
2022-12-27T03:20:52.091Z,9.40
2022-12-27T03:23:59.395Z,9.40
2022-12-27T03:26:48.984Z,9.40
2022-12-27T03:29:53.166Z,9.30
2022-12-27T03:33:07.052Z,9.40
2022-12-27T03:36:18.839Z,9.40
2022-12-27T03:39:11.096Z,9.40
2022-12-27T03:42:28.500Z,9.40
2022-12-27T03:45:14.572Z,9.60
2022-12-27T03:48:05.193Z,9.60
2022-12-27T03:50:54.993Z,9.70
2022-12-27T03:53:45.917Z,9.60
2022-12-27T03:56:32.356Z,9.50
2022-12-27T03:59:18.245Z,9.50
2022-12-27T04:02:04.378Z,9.50
2022-12-27T04:04:50.485Z,9.60
2022-12-27T04:07:36.121Z,9.60
2022-12-27T04:10:40.159Z,9.60
2022-12-27T04:13:43.988Z,9.50
2022-12-27T04:16:47.812Z,9.50
2022-12-27T04:19:51.865Z,9.50
2022-12-27T04:22:55.753Z,9.50
2022-12-27T04:25:59.699Z,9.40
2022-12-27T04:29:03.503Z,9.40
2022-12-27T04:32:07.313Z,9.40
2022-12-27T04:34:52.788Z,9.40
2022-12-27T04:37:38.256Z,9.30
2022-12-27T04:40:42.221Z,9.30
2022-12-27T04:43:46.219Z,9.40
2022-12-27T04:46:50.195Z,9.30
2022-12-27T04:49:54.191Z,9.20
2022-12-27T04:52:58.360Z,9.20
2022-12-27T04:55:43.823Z,9.20
2022-12-27T04:58:30.160Z,9.20
2022-12-27T05:01:34.414Z,9.10
2022-12-27T05:04:19.674Z,9.10
2022-12-27T05:07:28.212Z,9.20
2022-12-27T05:10:32.061Z,9.20
2022-12-27T05:13:35.932Z,9.20
2022-12-27T05:16:21.822Z,9.10
2022-12-27T05:19:09.725Z,9.00
2022-12-27T05:22:13.792Z,9.00
2022-12-27T05:25:17.569Z,9.10
2022-12-27T05:28:04.552Z,9.40
2022-12-27T05:30:50.107Z,9.70
2022-12-27T05:33:35.648Z,10.20
2022-12-27T05:36:21.494Z,10.80
2022-12-27T05:39:06.857Z,11.30
2022-12-27T05:41:52.395Z,11.60
2022-12-27T05:44:38.185Z,12.00
2022-12-27T05:47:24.280Z,12.30
2022-12-27T05:50:10.125Z,12.60
2022-12-27T05:52:55.850Z,12.90
2022-12-27T05:55:41.205Z,13.20
2022-12-27T05:58:27.161Z,13.40
2022-12-27T06:01:14.739Z,13.60
2022-12-27T06:04:00.490Z,13.70
2022-12-27T06:06:45.824Z,13.90
2022-12-27T06:09:31.372Z,14.00
2022-12-27T06:12:16.934Z,14.10
2022-12-27T06:15:02.835Z,14.10
2022-12-27T06:17:48.212Z,13.80
2022-12-27T06:20:33.952Z,14.30
2022-12-27T06:23:19.464Z,14.30
2022-12-27T06:26:09.162Z,14.30
2022-12-27T06:28:55.525Z,14.30
2022-12-27T06:31:41.459Z,14.30
2022-12-27T06:34:26.959Z,14.40
2022-12-27T06:37:12.712Z,14.40
2022-12-27T06:39:57.925Z,14.40
2022-12-27T06:42:43.546Z,14.40
2022-12-27T06:45:29.148Z,14.40
2022-12-27T06:48:14.628Z,14.50
2022-12-27T06:51:03.743Z,14.50
2022-12-27T06:53:49.227Z,14.50
2022-12-27T06:56:34.504Z,14.50
2022-12-27T06:59:20.279Z,14.60
2022-12-27T07:02:06.107Z,14.70
2022-12-27T07:04:51.879Z,14.80
2022-12-27T07:07:37.623Z,14.90
2022-12-27T07:10:23.167Z,14.90
2022-12-27T07:13:08.905Z,15.00
2022-12-27T07:15:54.560Z,15.00
2022-12-27T07:18:40.001Z,15.20
2022-12-27T07:21:26.142Z,15.10
2022-12-27T07:24:11.524Z,15.30
2022-12-27T07:26:57.086Z,15.60
2022-12-27T07:29:45.713Z,15.80
2022-12-27T07:32:31.552Z,15.90
2022-12-27T07:35:17.201Z,16.00
2022-12-27T07:38:02.712Z,16.10
2022-12-27T07:40:48.535Z,16.10
2022-12-27T07:43:34.797Z,16.00
2022-12-27T07:46:21.268Z,16.00
2022-12-27T07:49:11.048Z,16.00
2022-12-27T07:51:59.197Z,16.00
2022-12-27T07:54:44.915Z,15.90
2022-12-27T07:57:30.593Z,15.90
2022-12-27T08:00:17.009Z,15.90
2022-12-27T08:03:03.738Z,15.80
2022-12-27T08:05:49.851Z,15.90
2022-12-27T08:08:39.738Z,15.80
2022-12-27T08:11:26.680Z,15.90
2022-12-27T08:14:12.312Z,15.90
2022-12-27T08:16:59.204Z,15.90
2022-12-27T08:19:44.526Z,15.90
2022-12-27T08:22:30.179Z,15.90
2022-12-27T08:25:15.785Z,15.90
2022-12-27T08:28:06.686Z,15.90
2022-12-27T08:30:52.237Z,15.80
2022-12-27T08:33:38.289Z,15.90
2022-12-27T08:39:30.114Z,15.80
2022-12-27T08:42:15.714Z,15.90
2022-12-27T08:45:05.260Z,16.70
2022-12-27T08:47:50.638Z,15.90
2022-12-27T08:50:36.112Z,15.70
2022-12-27T08:53:21.781Z,15.80
2022-12-27T08:56:07.549Z,15.70
2022-12-27T08:58:53.032Z,15.70
2022-12-27T09:01:38.710Z,15.70
2022-12-27T09:04:24.301Z,15.60
2022-12-27T09:07:10.086Z,15.60
2022-12-27T09:09:55.761Z,15.60
2022-12-27T09:12:41.739Z,15.60
2022-12-27T09:15:27.350Z,15.60
2022-12-27T09:18:13.350Z,15.60
2022-12-27T09:21:03.593Z,15.60
2022-12-27T09:23:49.200Z,15.60
2022-12-27T09:26:34.595Z,15.60
2022-12-27T09:29:20.350Z,15.60
2022-12-27T09:32:05.913Z,15.60
2022-12-27T09:34:51.467Z,15.60
2022-12-27T09:37:37.169Z,15.60
2022-12-27T09:40:22.988Z,15.60
2022-12-27T09:43:19.613Z,15.50
2022-12-27T09:46:14.620Z,15.60
2022-12-27T09:49:00.598Z,15.70
2022-12-27T09:51:48.965Z,15.60
2022-12-27T09:54:40.625Z,15.60
2022-12-27T09:57:28.478Z,15.70
2022-12-27T10:00:16.048Z,15.60
2022-12-27T10:03:04.595Z,15.70
2022-12-27T10:05:56.354Z,15.60
2022-12-27T10:08:57.044Z,15.70
2022-12-27T10:11:45.795Z,15.60
2022-12-27T10:14:31.297Z,15.70
2022-12-27T10:17:19.905Z,15.60
2022-12-27T10:20:32.393Z,15.60
2022-12-27T10:23:21.040Z,15.50
2022-12-27T10:26:11.565Z,15.40
2022-12-27T10:29:10.653Z,15.30
2022-12-27T10:31:56.213Z,15.30
2022-12-27T10:34:42.101Z,15.30
2022-12-27T10:37:27.499Z,15.30
2022-12-27T10:40:34.620Z,15.30
2022-12-27T10:43:24.913Z,15.30
2022-12-27T10:46:11.856Z,15.60
2022-12-27T10:49:21.830Z,15.80
2022-12-27T10:52:17.243Z,15.90
2022-12-27T10:55:02.837Z,16.00
2022-12-27T10:57:48.337Z,16.10
2022-12-27T11:00:34.270Z,16.20
2022-12-27T11:03:20.445Z,16.30
2022-12-27T11:06:07.354Z,16.50
2022-12-27T11:08:54.044Z,16.50
2022-12-27T11:11:39.636Z,16.50
2022-12-27T11:14:25.396Z,16.60
2022-12-27T11:17:10.888Z,16.50
2022-12-27T11:19:57.527Z,16.50
2022-12-27T11:22:47.655Z,16.60
2022-12-27T11:25:34.907Z,16.60
2022-12-27T11:28:35.299Z,16.60
2022-12-27T11:31:36.662Z,16.40
2022-12-27T11:34:32.103Z,16.30
2022-12-27T11:37:21.882Z,16.20
2022-12-27T11:40:35.323Z,16.20
2022-12-27T11:43:27.481Z,16.30
2022-12-27T11:46:59.039Z,16.30
2022-12-27T11:50:26.590Z,16.30
2022-12-27T11:53:42.770Z,16.30
2022-12-27T11:56:40.097Z,16.30
2022-12-27T11:59:47.680Z,14.50
2022-12-27T12:03:10.480Z,16.20
2022-12-27T12:06:23.558Z,16.30
2022-12-27T12:09:27.557Z,16.20
2022-12-27T12:12:48.697Z,16.30
2022-12-27T12:16:17.134Z,16.30
2022-12-27T12:19:41.756Z,16.30
2022-12-27T12:22:50.373Z,16.30
2022-12-27T12:26:26.636Z,16.20
2022-12-27T12:29:36.161Z,16.20
2022-12-27T12:32:36.162Z,16.20
2022-12-27T12:35:36.094Z,16.20
2022-12-27T12:38:25.512Z,16.30
2022-12-27T12:41:30.175Z,16.30
2022-12-27T12:44:21.712Z,16.30
2022-12-27T12:47:33.583Z,16.20
2022-12-27T12:50:54.316Z,16.20
2022-12-27T12:53:54.816Z,16.30
2022-12-27T12:56:52.474Z,16.40
2022-12-27T13:00:11.247Z,16.40
2022-12-27T13:03:15.877Z,16.40
2022-12-27T13:06:28.187Z,16.50
2022-12-27T13:09:39.552Z,16.50
2022-12-27T13:13:10.117Z,16.50
2022-12-27T13:16:27.984Z,16.60
2022-12-27T13:19:22.518Z,16.50
2022-12-27T13:22:14.468Z,16.50
2022-12-27T13:25:13.502Z,16.50
2022-12-27T13:28:17.766Z,16.50
2022-12-27T13:31:07.635Z,16.60
2022-12-27T13:34:34.980Z,16.60
2022-12-27T13:37:56.113Z,16.60
2022-12-27T13:41:24.977Z,16.50
2022-12-27T13:44:47.117Z,16.50
2022-12-27T13:47:37.676Z,16.00
2022-12-27T13:50:41.969Z,16.50
2022-12-27T13:53:40.638Z,16.50
2022-12-27T14:00:09.243Z,16.50
2022-12-27T14:03:04.214Z,16.50
2022-12-27T14:06:07.771Z,16.50
2022-12-27T14:09:06.843Z,16.50
2022-12-27T14:12:30.302Z,16.50
2022-12-27T14:15:22.251Z,16.50
2022-12-27T14:18:19.858Z,16.50
2022-12-27T14:21:24.137Z,16.50
2022-12-27T14:24:28.013Z,16.50
2022-12-27T14:27:35.402Z,16.50
2022-12-27T14:30:55.408Z,16.50
2022-12-27T14:33:49.834Z,16.50
2022-12-27T14:37:06.836Z,16.50
2022-12-27T14:40:34.909Z,16.60
2022-12-27T14:43:51.543Z,16.50
2022-12-27T14:46:47.570Z,16.70
2022-12-27T14:49:33.064Z,16.60
2022-12-27T14:52:55.706Z,16.70
2022-12-27T14:55:53.331Z,16.70
2022-12-27T14:58:57.003Z,16.60
2022-12-27T15:01:55.734Z,16.60
2022-12-27T15:05:03.622Z,16.60
2022-12-27T15:07:57.921Z,16.50
2022-12-27T15:11:02.518Z,16.50
2022-12-27T15:14:19.800Z,16.50
2022-12-27T15:17:33.050Z,16.60
2022-12-27T15:20:47.881Z,16.60
2022-12-27T15:23:46.409Z,16.60
2022-12-27T15:26:57.218Z,16.60
2022-12-27T15:30:00.867Z,16.60
2022-12-27T15:33:16.209Z,16.50
2022-12-27T15:36:13.567Z,16.40
2022-12-27T15:38:59.418Z,16.20
2022-12-27T15:41:55.653Z,16.10
2022-12-27T15:45:02.729Z,16.10
2022-12-27T15:48:26.755Z,16.00
2022-12-27T15:51:21.502Z,16.00
2022-12-27T15:54:09.943Z,16.00
2022-12-27T15:57:33.310Z,16.00
2022-12-27T16:00:34.032Z,16.00
2022-12-27T16:03:32.407Z,16.00
2022-12-27T16:06:36.574Z,16.00
2022-12-27T16:09:24.911Z,16.10
2022-12-27T16:12:30.842Z,16.10
2022-12-27T16:15:45.259Z,16.10
2022-12-27T16:18:33.613Z,16.10
2022-12-27T16:21:27.972Z,16.00
2022-12-27T16:24:19.380Z,16.00
2022-12-27T16:27:05.616Z,16.00
2022-12-27T16:29:51.384Z,16.00
2022-12-27T16:32:36.871Z,15.90
2022-12-27T16:35:23.477Z,15.90
2022-12-27T16:38:22.222Z,15.90
2022-12-27T16:41:15.191Z,15.80
2022-12-27T16:44:00.631Z,15.80
2022-12-27T16:47:11.931Z,15.80
2022-12-27T16:50:29.602Z,15.70
2022-12-27T16:53:40.765Z,15.70
2022-12-27T16:56:28.941Z,15.70
2022-12-27T16:59:51.872Z,15.60
2022-12-27T17:02:38.320Z,15.70
2022-12-27T17:05:33.730Z,15.60
2022-12-27T17:08:20.370Z,15.60
2022-12-27T17:11:25.425Z,15.70
2022-12-27T17:14:27.980Z,15.70
2022-12-27T17:17:22.579Z,15.70
2022-12-27T17:20:16.999Z,15.70
2022-12-27T17:23:04.388Z,15.70
2022-12-27T17:26:03.463Z,15.80
2022-12-27T17:29:04.776Z,15.80
2022-12-27T17:32:17.835Z,15.80
2022-12-27T17:35:06.299Z,15.80
2022-12-27T17:38:16.889Z,15.80
2022-12-27T17:41:03.065Z,15.70
2022-12-27T17:44:36.010Z,15.70
2022-12-27T17:47:52.179Z,15.70
2022-12-27T17:50:42.318Z,15.60
2022-12-27T17:53:46.633Z,15.60
2022-12-27T17:57:00.202Z,15.60
2022-12-27T17:59:49.192Z,15.60
2022-12-27T18:02:39.064Z,15.60
2022-12-27T18:05:30.507Z,15.60
2022-12-27T18:08:34.798Z,15.60
2022-12-27T18:11:27.794Z,15.60
2022-12-27T18:14:13.936Z,15.60
2022-12-27T18:16:59.703Z,15.60
2022-12-27T18:19:45.708Z,15.50
2022-12-27T18:22:31.061Z,15.60
2022-12-27T18:25:26.909Z,15.50
2022-12-27T18:28:48.092Z,15.60
2022-12-27T18:31:45.034Z,15.60
2022-12-27T18:34:36.938Z,15.60
2022-12-27T18:37:24.757Z,15.60
2022-12-27T18:40:20.735Z,15.60
2022-12-27T18:43:15.368Z,15.60
2022-12-27T18:46:03.738Z,15.70
2022-12-27T18:48:49.597Z,15.70
2022-12-27T18:51:37.876Z,15.60
2022-12-27T18:54:29.543Z,15.70
2022-12-27T18:57:38.624Z,15.70
2022-12-27T19:00:27.869Z,15.60
2022-12-27T19:03:16.856Z,15.70
2022-12-27T19:06:13.109Z,15.60
2022-12-27T19:08:58.852Z,15.60
2022-12-27T19:12:03.909Z,15.60
2022-12-27T19:14:49.907Z,15.60
2022-12-27T19:17:38.610Z,15.60
2022-12-27T19:20:31.714Z,15.60
2022-12-27T19:23:29.140Z,15.50
2022-12-27T19:26:17.804Z,15.50
2022-12-27T19:29:13.899Z,15.50
2022-12-27T19:32:07.070Z,15.60
2022-12-27T19:34:56.434Z,15.50
2022-12-27T19:37:41.988Z,15.50
2022-12-27T19:40:27.560Z,15.50
2022-12-27T19:43:14.082Z,15.60
2022-12-27T19:45:59.724Z,15.60
2022-12-27T19:49:07.638Z,15.60
2022-12-27T19:51:53.716Z,15.50
2022-12-27T19:54:39.535Z,15.50
2022-12-27T19:57:25.151Z,15.50
2022-12-27T20:00:15.210Z,15.50
2022-12-27T20:03:00.705Z,15.50
2022-12-27T20:06:14.774Z,15.60
2022-12-27T20:08:52.410Z,15.60
2022-12-27T20:11:37.693Z,15.60
2022-12-27T20:14:23.449Z,15.50
2022-12-27T20:17:08.882Z,15.60
2022-12-27T20:19:54.344Z,15.50
2022-12-27T20:22:40.023Z,15.50
2022-12-27T20:25:25.748Z,15.60
2022-12-27T20:28:11.607Z,15.60
2022-12-27T20:30:57.544Z,15.60
2022-12-27T20:33:43.546Z,15.60
2022-12-27T20:36:29.304Z,15.50
2022-12-27T20:39:15.236Z,15.50
2022-12-27T20:42:01.295Z,15.60
2022-12-27T20:44:46.710Z,15.60
2022-12-27T20:47:32.221Z,15.50
2022-12-27T20:50:17.891Z,15.50
2022-12-27T20:53:03.581Z,15.50
2022-12-27T20:55:59.046Z,15.50
2022-12-27T20:58:44.601Z,15.50
2022-12-27T21:01:30.326Z,16.90
2022-12-27T21:04:17.537Z,15.50
2022-12-27T21:07:03.763Z,15.50
2022-12-27T21:09:49.941Z,15.50
2022-12-27T21:12:35.814Z,15.50
2022-12-27T21:15:21.376Z,15.50
2022-12-27T21:18:06.865Z,15.50
2022-12-27T21:20:52.298Z,15.50
2022-12-27T21:23:37.986Z,15.50
2022-12-27T21:26:35.883Z,15.50
2022-12-27T21:29:22.752Z,15.50
2022-12-27T21:32:08.573Z,15.50
2022-12-27T21:34:54.320Z,15.50
2022-12-27T21:37:39.795Z,15.50
2022-12-27T21:40:25.292Z,15.50
2022-12-27T21:43:10.907Z,15.60
2022-12-27T21:45:56.901Z,15.60
2022-12-27T21:48:43.168Z,15.60
2022-12-27T21:51:30.545Z,15.60
2022-12-27T21:54:16.431Z,15.30
2022-12-27T21:57:02.229Z,14.40
2022-12-27T21:59:48.092Z,13.70
2022-12-27T22:02:33.671Z,13.10
2022-12-27T22:05:19.791Z,12.60
2022-12-27T22:08:05.542Z,12.20
2022-12-27T22:10:57.235Z,11.90
2022-12-27T22:13:43.752Z,11.90
2022-12-27T22:16:35.214Z,11.60
2022-12-27T22:19:20.896Z,11.50
2022-12-27T22:22:06.558Z,11.20
2022-12-27T22:24:52.120Z,11.20
2022-12-27T22:27:37.711Z,11.20
2022-12-27T22:30:23.100Z,11.20
2022-12-27T22:33:08.833Z,11.10
2022-12-27T22:36:03.131Z,11.10
2022-12-27T22:38:50.707Z,11.20
2022-12-27T22:41:37.186Z,11.10
2022-12-27T22:44:22.874Z,11.00
2022-12-27T22:50:13.934Z,10.70
2022-12-27T22:52:59.250Z,10.80
2022-12-27T22:55:45.841Z,10.90
2022-12-27T22:58:32.329Z,10.80
2022-12-27T23:01:21.312Z,10.70
2022-12-27T23:04:08.530Z,10.80
2022-12-27T23:06:54.177Z,10.70
2022-12-27T23:09:43.461Z,10.60
2022-12-27T23:12:29.170Z,10.70
2022-12-27T23:15:14.697Z,10.60
2022-12-27T23:18:00.148Z,10.50
2022-12-27T23:21:19.223Z,10.40
2022-12-27T23:23:51.728Z,10.40
2022-12-27T23:26:38.255Z,10.40
2022-12-27T23:29:24.023Z,10.40
2022-12-27T23:32:09.513Z,10.20
2022-12-27T23:34:55.037Z,10.30
2022-12-27T23:37:40.552Z,10.00
2022-12-27T23:40:26.049Z,9.90
2022-12-27T23:43:50.287Z,10.00
2022-12-27T23:46:21.845Z,10.10
2022-12-27T23:49:07.233Z,10.10
2022-12-27T23:51:53.845Z,10.10
2022-12-27T23:54:39.744Z,10.30
2022-12-27T23:57:25.355Z,10.10
